createdAt,value
2018-05-10T00:01:34.448Z,12.30
2018-05-10T00:04:01.955Z,12.30
2018-05-10T00:06:29.438Z,12.30
2018-05-10T00:08:56.943Z,12.30
2018-05-10T00:11:24.440Z,12.20
2018-05-10T00:13:51.936Z,12.20
2018-05-10T00:16:19.485Z,12.20
2018-05-10T00:18:46.970Z,12.10
2018-05-10T00:21:14.470Z,12.10
2018-05-10T00:23:42.060Z,12.00
2018-05-10T00:26:09.590Z,12.10
2018-05-10T00:28:37.842Z,12.00
2018-05-10T00:31:05.328Z,12.00
2018-05-10T00:33:33.600Z,12.10
2018-05-10T00:36:01.859Z,12.00
2018-05-10T00:38:29.380Z,12.00
2018-05-10T00:40:56.872Z,12.00
2018-05-10T00:43:24.386Z,11.90
2018-05-10T00:45:51.880Z,11.90
2018-05-10T00:48:19.476Z,11.90
2018-05-10T00:50:46.978Z,11.80
2018-05-10T00:53:14.481Z,11.80
2018-05-10T00:55:42.769Z,11.90
2018-05-10T00:58:10.312Z,11.80
2018-05-10T01:00:39.686Z,11.90
2018-05-10T01:03:07.269Z,11.80
2018-05-10T01:05:35.581Z,11.90
2018-05-10T01:08:03.074Z,11.80
2018-05-10T01:10:32.061Z,11.90
2018-05-10T01:12:59.554Z,11.90
2018-05-10T01:15:27.829Z,11.90
2018-05-10T01:17:55.413Z,11.90
2018-05-10T01:20:22.967Z,11.90
2018-05-10T01:22:50.551Z,11.90
2018-05-10T01:25:18.742Z,11.80
2018-05-10T01:27:46.242Z,11.80
2018-05-10T01:30:13.792Z,11.80
2018-05-10T01:32:41.287Z,11.70
2018-05-10T01:35:20.885Z,11.70
2018-05-10T01:37:48.366Z,11.70
2018-05-10T01:40:15.917Z,11.70
2018-05-10T01:42:43.415Z,11.80
2018-05-10T01:45:10.926Z,11.70
2018-05-10T01:47:38.473Z,11.70
2018-05-10T01:50:05.954Z,11.80
2018-05-10T01:52:33.484Z,11.80
2018-05-10T01:55:00.965Z,11.90
2018-05-10T01:57:28.488Z,11.90
2018-05-10T01:59:56.816Z,12.00
2018-05-10T02:02:24.312Z,12.00
2018-05-10T02:04:52.608Z,12.00
2018-05-10T02:07:20.186Z,12.00
2018-05-10T02:09:47.680Z,12.00
2018-05-10T02:12:15.175Z,12.00
2018-05-10T02:14:42.760Z,12.00
2018-05-10T02:17:10.245Z,12.10
2018-05-10T02:19:37.757Z,12.10
2018-05-10T02:22:05.259Z,12.10
2018-05-10T02:24:32.764Z,12.10
2018-05-10T02:27:00.311Z,12.00
2018-05-10T02:29:28.594Z,12.10
2018-05-10T02:31:56.088Z,12.00
2018-05-10T02:34:23.591Z,12.00
2018-05-10T02:36:51.860Z,12.00
2018-05-10T02:39:20.141Z,11.90
2018-05-10T02:41:48.402Z,11.80
2018-05-10T02:44:16.664Z,11.80
2018-05-10T02:46:44.168Z,11.80
2018-05-10T02:49:11.653Z,11.80
2018-05-10T02:51:39.150Z,11.70
2018-05-10T02:54:07.403Z,11.60
2018-05-10T02:56:34.890Z,11.60
2018-05-10T02:59:03.156Z,11.50
2018-05-10T03:01:31.434Z,11.50
2018-05-10T03:03:59.706Z,11.50
2018-05-10T03:06:27.994Z,11.40
2018-05-10T03:08:55.508Z,11.40
2018-05-10T03:11:23.015Z,11.40
2018-05-10T03:13:50.494Z,11.40
2018-05-10T03:16:17.991Z,11.40
2018-05-10T03:18:45.502Z,11.40
2018-05-10T03:21:13.033Z,11.40
2018-05-10T03:23:40.592Z,11.30
2018-05-10T03:26:08.139Z,11.30
2018-05-10T03:28:36.416Z,11.20
2018-05-10T03:31:04.680Z,11.20
2018-05-10T03:33:32.952Z,11.20
2018-05-10T03:36:01.207Z,11.20
2018-05-10T03:38:28.739Z,11.20
2018-05-10T03:40:56.264Z,11.20
2018-05-10T03:43:23.824Z,11.20
2018-05-10T03:45:51.323Z,11.20
2018-05-10T03:48:18.927Z,11.10
2018-05-10T03:50:46.436Z,11.10
2018-05-10T03:53:13.952Z,11.00
2018-05-10T03:55:41.463Z,10.90
2018-05-10T03:58:08.964Z,11.00
2018-05-10T04:00:36.458Z,11.00
2018-05-10T04:06:31.497Z,11.00
2018-05-10T04:09:10.950Z,11.10
2018-05-10T04:11:39.220Z,11.00
2018-05-10T04:14:07.488Z,11.00
2018-05-10T04:16:34.990Z,11.00
2018-05-10T04:19:02.478Z,11.10
2018-05-10T04:21:30.003Z,11.20
2018-05-10T04:23:57.489Z,11.30
2018-05-10T04:26:24.966Z,11.40
2018-05-10T04:28:52.472Z,11.50
2018-05-10T04:31:19.965Z,11.50
2018-05-10T04:33:47.587Z,11.70
2018-05-10T04:36:15.089Z,11.70
2018-05-10T04:38:42.596Z,11.80
2018-05-10T04:41:10.090Z,11.70
2018-05-10T04:43:37.596Z,11.70
2018-05-10T04:46:05.111Z,12.00
2018-05-10T04:48:32.611Z,12.20
2018-05-10T04:51:00.104Z,12.20
2018-05-10T04:53:27.611Z,12.20
2018-05-10T04:55:55.873Z,12.20
2018-05-10T04:58:24.140Z,12.30
2018-05-10T05:00:51.745Z,12.30
2018-05-10T05:03:19.308Z,12.50
2018-05-10T05:05:46.800Z,12.40
2018-05-10T05:08:14.399Z,12.50
2018-05-10T05:10:41.891Z,12.60
2018-05-10T05:13:09.413Z,12.80
2018-05-10T05:15:36.969Z,12.90
2018-05-10T05:18:04.513Z,13.20
2018-05-10T05:20:32.785Z,13.70
2018-05-10T05:23:01.034Z,14.10
2018-05-10T05:25:28.522Z,14.00
2018-05-10T05:27:56.811Z,14.10
2018-05-10T05:30:24.310Z,14.10
2018-05-10T05:32:51.805Z,14.10
2018-05-10T05:35:20.060Z,14.60
2018-05-10T05:37:47.572Z,14.50
2018-05-10T05:40:15.083Z,14.60
2018-05-10T05:42:43.330Z,15.20
2018-05-10T05:45:10.919Z,15.20
2018-05-10T05:47:39.177Z,16.30
2018-05-10T05:50:06.772Z,16.20
2018-05-10T05:52:34.329Z,17.20
2018-05-10T05:55:01.851Z,18.20
2018-05-10T05:57:29.348Z,19.40
2018-05-10T05:59:56.843Z,20.20
2018-05-10T06:02:24.346Z,21.30
2018-05-10T06:04:52.608Z,22.70
2018-05-10T06:07:20.890Z,23.00
2018-05-10T06:09:49.175Z,23.20
2018-05-10T06:12:16.685Z,23.20
2018-05-10T06:14:44.181Z,23.30
2018-05-10T06:17:12.454Z,23.20
2018-05-10T06:19:40.736Z,23.50
2018-05-10T06:22:08.251Z,23.50
2018-05-10T06:24:35.738Z,23.90
2018-05-10T06:27:03.996Z,24.30
2018-05-10T06:29:31.499Z,24.20
2018-05-10T06:31:58.995Z,24.60
2018-05-10T06:34:26.498Z,24.50
2018-05-10T06:36:53.978Z,24.60
2018-05-10T06:39:21.491Z,24.40
2018-05-10T06:41:49.801Z,25.00
2018-05-10T06:44:17.305Z,24.90
2018-05-10T06:46:44.804Z,25.00
2018-05-10T06:49:12.289Z,24.90
2018-05-10T06:51:39.786Z,24.50
2018-05-10T06:54:07.363Z,23.90
2018-05-10T06:56:35.652Z,22.60
2018-05-10T06:59:03.262Z,22.60
2018-05-10T07:01:30.773Z,21.80
2018-05-10T07:03:58.262Z,21.40
2018-05-10T07:06:25.758Z,21.40
2018-05-10T07:08:54.017Z,22.70
2018-05-10T07:11:21.515Z,22.60
2018-05-10T07:13:49.012Z,23.10
2018-05-10T07:16:16.508Z,23.40
2018-05-10T07:18:44.807Z,23.30
2018-05-10T07:21:12.304Z,23.30
2018-05-10T07:23:39.903Z,23.50
2018-05-10T07:26:07.454Z,23.40
2018-05-10T07:28:35.006Z,23.50
2018-05-10T07:31:03.292Z,23.40
2018-05-10T07:33:30.817Z,23.30
2018-05-10T07:35:58.305Z,23.40
2018-05-10T07:38:25.789Z,22.90
2018-05-10T07:40:53.318Z,22.90
2018-05-10T07:43:21.575Z,22.70
2018-05-10T07:45:49.896Z,22.40
2018-05-10T07:48:17.392Z,22.30
2018-05-10T07:50:45.002Z,22.30
2018-05-10T07:53:12.592Z,22.50
2018-05-10T07:55:40.232Z,22.50
2018-05-10T07:58:07.713Z,22.60
2018-05-10T08:00:35.219Z,22.90
2018-05-10T08:03:02.737Z,23.00
2018-05-10T08:05:30.275Z,23.10
2018-05-10T08:07:57.767Z,23.40
2018-05-10T08:10:26.029Z,23.90
2018-05-10T08:12:53.543Z,23.90
2018-05-10T08:15:21.026Z,23.70
2018-05-10T08:17:48.506Z,23.70
2018-05-10T08:20:16.769Z,22.50
2018-05-10T08:22:44.382Z,22.40
2018-05-10T08:25:11.898Z,22.00
2018-05-10T08:27:45.996Z,21.00
2018-05-10T08:30:13.516Z,20.90
2018-05-10T08:32:41.055Z,20.60
2018-05-10T08:35:08.606Z,20.50
2018-05-10T08:37:36.112Z,20.80
2018-05-10T08:40:03.622Z,21.60
2018-05-10T08:42:31.172Z,21.90
2018-05-10T08:44:58.728Z,22.00
2018-05-10T08:47:26.218Z,22.30
2018-05-10T08:49:53.699Z,22.80
2018-05-10T08:52:21.295Z,22.70
2018-05-10T08:54:49.542Z,23.20
2018-05-10T08:57:17.044Z,23.10
2018-05-10T08:59:44.539Z,23.00
2018-05-10T09:02:12.172Z,23.20
2018-05-10T09:04:39.657Z,23.30
2018-05-10T09:07:07.167Z,23.40
2018-05-10T09:09:34.663Z,23.60
2018-05-10T09:12:02.156Z,23.80
2018-05-10T09:14:30.429Z,23.40
2018-05-10T09:16:58.698Z,23.70
2018-05-10T09:19:26.995Z,23.90
2018-05-10T09:21:54.546Z,23.80
2018-05-10T09:24:22.821Z,24.70
2018-05-10T09:26:51.065Z,24.60
2018-05-10T09:29:18.542Z,24.50
2018-05-10T09:31:46.874Z,24.40
2018-05-10T09:34:14.366Z,24.40
2018-05-10T09:36:42.625Z,24.40
2018-05-10T09:39:10.292Z,24.40
2018-05-10T09:41:37.796Z,23.90
2018-05-10T09:44:05.296Z,24.20
2018-05-10T09:46:32.813Z,24.10
2018-05-10T09:49:00.310Z,24.10
2018-05-10T09:51:27.819Z,24.10
2018-05-10T09:53:55.336Z,23.90
2018-05-10T09:56:22.920Z,24.10
2018-05-10T09:58:50.412Z,24.20
2018-05-10T10:01:17.907Z,24.40
2018-05-10T10:03:45.507Z,24.60
2018-05-10T10:06:13.152Z,24.60
2018-05-10T10:08:40.637Z,24.90
2018-05-10T10:11:08.143Z,25.10
2018-05-10T10:13:36.391Z,25.00
2018-05-10T10:16:04.012Z,25.00
2018-05-10T10:18:31.541Z,25.00
2018-05-10T10:20:59.098Z,24.80
2018-05-10T10:23:27.360Z,24.80
2018-05-10T10:25:54.872Z,24.70
2018-05-10T10:28:22.385Z,25.00
2018-05-10T10:30:50.672Z,24.70
2018-05-10T10:33:18.232Z,24.70
2018-05-10T10:35:45.774Z,24.70
2018-05-10T10:38:14.048Z,24.80
2018-05-10T10:40:41.615Z,24.80
2018-05-10T10:43:09.124Z,24.70
2018-05-10T10:45:36.735Z,24.70
2018-05-10T10:48:04.246Z,24.10
2018-05-10T10:50:31.736Z,23.70
2018-05-10T10:53:00.212Z,22.60
2018-05-10T10:55:27.679Z,22.50
2018-05-10T10:57:55.234Z,22.90
2018-05-10T11:00:23.512Z,23.40
2018-05-10T11:02:51.002Z,23.30
2018-05-10T11:05:18.528Z,23.70
2018-05-10T11:07:46.042Z,24.00
2018-05-10T11:10:13.643Z,24.20
2018-05-10T11:12:41.164Z,24.20
2018-05-10T11:15:08.709Z,24.20
2018-05-10T11:17:36.189Z,24.30
2018-05-10T11:20:03.696Z,24.70
2018-05-10T11:22:31.188Z,25.20
2018-05-10T11:24:58.774Z,25.20
2018-05-10T11:27:27.091Z,24.60
2018-05-10T11:29:54.587Z,24.60
2018-05-10T11:32:22.172Z,23.90
2018-05-10T11:34:49.662Z,23.60
2018-05-10T11:37:17.189Z,23.20
2018-05-10T11:39:44.684Z,23.60
2018-05-10T11:42:12.178Z,24.10
2018-05-10T11:44:40.584Z,23.50
2018-05-10T11:47:08.077Z,23.50
2018-05-10T11:49:35.577Z,23.40
2018-05-10T11:52:03.836Z,22.90
2018-05-10T11:54:31.443Z,22.90
2018-05-10T11:56:58.943Z,22.60
2018-05-10T11:59:26.554Z,22.80
2018-05-10T12:01:54.083Z,23.50
2018-05-10T12:04:22.329Z,23.90
2018-05-10T12:06:49.820Z,23.90
2018-05-10T12:09:17.319Z,24.00
2018-05-10T12:11:44.813Z,24.50
2018-05-10T12:14:13.103Z,24.60
2018-05-10T12:16:41.412Z,24.40
2018-05-10T12:19:08.930Z,24.30
2018-05-10T12:21:36.411Z,24.20
2018-05-10T12:24:03.890Z,23.60
2018-05-10T12:26:31.408Z,23.30
2018-05-10T12:28:59.676Z,22.50
2018-05-10T12:31:28.189Z,22.50
2018-05-10T12:33:55.684Z,22.40
2018-05-10T12:36:23.187Z,22.30
2018-05-10T12:38:50.682Z,22.00
2018-05-10T12:41:18.178Z,21.90
2018-05-10T12:43:46.464Z,22.60
2018-05-10T12:46:13.960Z,22.60
2018-05-10T12:48:41.582Z,22.30
2018-05-10T12:51:09.077Z,22.20
2018-05-10T12:53:36.571Z,21.90
2018-05-10T12:56:04.880Z,21.10
2018-05-10T12:58:32.365Z,21.10
2018-05-10T13:00:59.877Z,20.70
2018-05-10T13:03:27.446Z,20.50
2018-05-10T13:05:54.926Z,20.80
2018-05-10T13:08:22.529Z,20.90
2018-05-10T13:10:49.951Z,21.30
2018-05-10T13:13:17.522Z,21.60
2018-05-10T13:15:44.958Z,21.90
2018-05-10T13:18:12.456Z,21.70
2018-05-10T13:20:40.721Z,21.60
2018-05-10T13:23:08.274Z,21.50
2018-05-10T13:25:35.749Z,21.80
2018-05-10T13:28:04.037Z,22.50
2018-05-10T13:30:31.596Z,22.40
2018-05-10T13:32:59.854Z,22.60
2018-05-10T13:35:28.111Z,22.30
2018-05-10T13:37:55.602Z,22.30
2018-05-10T13:40:23.093Z,22.30
2018-05-10T13:42:50.593Z,22.20
2018-05-10T13:45:18.881Z,22.30
2018-05-10T13:47:47.128Z,22.00
2018-05-10T13:50:14.626Z,22.00
2018-05-10T13:52:42.163Z,21.70
2018-05-10T13:55:10.448Z,21.70
2018-05-10T13:57:38.097Z,21.70
2018-05-10T14:00:06.376Z,21.80
2018-05-10T14:02:34.641Z,21.80
2018-05-10T14:05:02.912Z,22.00
2018-05-10T14:07:31.194Z,22.10
2018-05-10T14:09:59.459Z,22.20
2018-05-10T14:12:27.721Z,22.10
2018-05-10T14:14:55.244Z,22.10
2018-05-10T14:17:22.725Z,22.00
2018-05-10T14:19:50.218Z,22.20
2018-05-10T14:22:18.474Z,22.20
2018-05-10T14:24:45.988Z,22.20
2018-05-10T14:27:13.493Z,22.00
2018-05-10T14:29:42.201Z,21.40
2018-05-10T14:32:09.774Z,21.40
2018-05-10T14:34:37.271Z,21.30
2018-05-10T14:37:04.782Z,21.50
2018-05-10T14:39:32.404Z,21.60
2018-05-10T14:41:59.827Z,21.90
2018-05-10T14:44:27.334Z,22.10
2018-05-10T14:46:54.886Z,22.10
2018-05-10T14:49:23.162Z,21.70
2018-05-10T14:51:51.424Z,21.60
2018-05-10T14:54:19.690Z,21.80
2018-05-10T14:56:47.275Z,21.70
2018-05-10T14:59:14.844Z,21.80
2018-05-10T15:01:42.342Z,21.40
2018-05-10T15:04:09.947Z,21.30
2018-05-10T15:06:37.437Z,21.10
2018-05-10T15:09:04.991Z,21.00
2018-05-10T15:11:32.536Z,21.00
2018-05-10T15:14:00.018Z,21.00
2018-05-10T15:16:27.628Z,21.10
2018-05-10T15:18:55.182Z,21.00
2018-05-10T15:21:23.438Z,20.70
2018-05-10T15:23:51.012Z,20.60
2018-05-10T15:26:19.393Z,20.60
2018-05-10T15:28:47.690Z,20.60
2018-05-10T15:31:15.220Z,20.60
2018-05-10T15:33:43.478Z,20.30
2018-05-10T15:36:11.067Z,20.20
2018-05-10T15:38:38.598Z,20.10
2018-05-10T15:41:06.869Z,19.70
2018-05-10T15:43:35.158Z,19.60
2018-05-10T15:46:03.404Z,19.60
2018-05-10T15:48:30.905Z,19.60
2018-05-10T15:50:58.412Z,19.60
2018-05-10T15:53:25.894Z,19.50
2018-05-10T15:55:53.406Z,19.40
2018-05-10T15:58:20.930Z,19.40
2018-05-10T16:00:48.458Z,19.30
2018-05-10T16:03:15.941Z,19.40
2018-05-10T16:05:43.495Z,19.50
2018-05-10T16:08:11.000Z,19.60
2018-05-10T16:10:38.546Z,19.60
2018-05-10T16:13:06.051Z,19.40
2018-05-10T16:15:33.609Z,19.50
2018-05-10T16:18:01.863Z,20.10
2018-05-10T16:20:29.452Z,20.00
2018-05-10T16:22:56.961Z,20.30
2018-05-10T16:25:24.562Z,20.30
2018-05-10T16:27:52.821Z,20.50
2018-05-10T16:30:20.404Z,20.50
2018-05-10T16:32:47.901Z,20.40
2018-05-10T16:35:15.406Z,20.40
2018-05-10T16:37:43.686Z,19.90
2018-05-10T16:40:11.964Z,19.70
2018-05-10T16:42:39.489Z,19.70
2018-05-10T16:45:07.000Z,19.50
2018-05-10T16:47:34.482Z,19.40
2018-05-10T16:50:01.986Z,19.20
2018-05-10T16:52:29.563Z,19.30
2018-05-10T16:54:57.076Z,19.10
2018-05-10T16:57:24.574Z,18.90
2018-05-10T16:59:52.088Z,18.80
2018-05-10T17:02:19.578Z,18.70
2018-05-10T17:04:47.081Z,18.70
2018-05-10T17:07:14.655Z,18.90
2018-05-10T17:09:42.518Z,18.80
2018-05-10T17:12:10.130Z,18.80
2018-05-10T17:14:37.623Z,18.70
2018-05-10T17:17:05.222Z,18.70
2018-05-10T17:19:32.707Z,18.60
2018-05-10T17:22:00.223Z,18.50
2018-05-10T17:24:28.495Z,18.30
2018-05-10T17:26:56.739Z,18.20
2018-05-10T17:29:24.282Z,18.10
2018-05-10T17:31:51.782Z,18.10
2018-05-10T17:34:20.072Z,18.00
2018-05-10T17:36:47.581Z,17.90
2018-05-10T17:39:15.058Z,18.10
2018-05-10T17:41:42.609Z,18.00
2018-05-10T17:44:10.072Z,18.00
2018-05-10T17:46:38.348Z,18.10
2018-05-10T17:49:06.623Z,17.90
2018-05-10T17:51:34.896Z,17.80
2018-05-10T17:54:03.181Z,17.70
2018-05-10T17:56:31.483Z,17.70
2018-05-10T17:58:58.977Z,17.70
2018-05-10T18:01:26.458Z,17.60
2018-05-10T18:03:54.757Z,17.70
2018-05-10T18:06:22.245Z,17.60
2018-05-10T18:08:49.867Z,17.70
2018-05-10T18:11:17.349Z,17.60
2018-05-10T18:13:44.914Z,17.60
2018-05-10T18:16:12.406Z,17.40
2018-05-10T18:18:39.998Z,17.40
2018-05-10T18:21:07.517Z,17.40
2018-05-10T18:23:35.108Z,17.40
2018-05-10T18:26:02.530Z,17.40
2018-05-10T18:28:30.022Z,17.30
2018-05-10T18:30:58.283Z,17.30
2018-05-10T18:33:26.537Z,17.40
2018-05-10T18:35:54.129Z,17.30
2018-05-10T18:38:21.625Z,17.40
2018-05-10T18:40:49.182Z,17.40
2018-05-10T18:43:17.508Z,17.30
2018-05-10T18:45:45.766Z,17.20
2018-05-10T18:48:13.278Z,17.20
2018-05-10T18:50:40.769Z,17.20
2018-05-10T18:53:08.250Z,17.10
2018-05-10T18:55:36.520Z,17.00
2018-05-10T18:58:04.829Z,17.00
2018-05-10T19:00:32.352Z,17.00
2018-05-10T19:03:00.598Z,16.90
2018-05-10T19:05:28.090Z,16.90
2018-05-10T19:07:56.336Z,16.80
2018-05-10T19:10:23.927Z,16.70
2018-05-10T19:12:51.493Z,16.60
2018-05-10T19:15:19.058Z,16.40
2018-05-10T19:17:46.604Z,16.30
2018-05-10T19:20:14.151Z,16.20
2018-05-10T19:22:42.402Z,15.90
2018-05-10T19:25:09.910Z,15.80
2018-05-10T19:27:37.400Z,15.90
2018-05-10T19:30:04.907Z,15.70
2018-05-10T19:32:32.402Z,15.40
2018-05-10T19:34:59.900Z,15.30
2018-05-10T19:37:28.176Z,14.90
2018-05-10T19:39:56.425Z,14.70
2018-05-10T19:42:23.940Z,14.70
2018-05-10T19:44:51.420Z,14.50
2018-05-10T19:47:18.914Z,14.60
2018-05-10T19:49:46.412Z,14.40
2018-05-10T19:52:13.916Z,14.20
2018-05-10T19:54:41.432Z,14.10
2018-05-10T19:57:08.959Z,14.00
2018-05-10T19:59:37.278Z,13.30
2018-05-10T20:02:04.806Z,13.20
2018-05-10T20:04:32.289Z,13.00
2018-05-10T20:06:59.819Z,13.10
2018-05-10T20:09:27.350Z,13.00
2018-05-10T20:11:55.631Z,13.00
2018-05-10T20:14:23.897Z,12.70
2018-05-10T20:16:52.184Z,12.80
2018-05-10T20:19:19.678Z,12.70
2018-05-10T20:21:47.189Z,12.80
2018-05-10T20:24:15.450Z,12.70
2018-05-10T20:26:43.838Z,12.70
2018-05-10T20:29:12.092Z,12.70
2018-05-10T20:31:39.683Z,12.70
2018-05-10T20:34:07.189Z,12.70
2018-05-10T20:36:34.699Z,12.70
2018-05-10T20:39:02.228Z,12.60
2018-05-10T20:41:30.546Z,12.70
2018-05-10T20:43:58.867Z,12.70
2018-05-10T20:46:27.060Z,12.70
2018-05-10T20:48:55.371Z,12.70
2018-05-10T20:51:22.892Z,12.60
2018-05-10T20:53:51.204Z,12.60
2018-05-10T20:56:18.725Z,12.60
2018-05-10T20:58:46.984Z,12.50
2018-05-10T21:01:14.496Z,12.50
2018-05-10T21:03:42.035Z,12.50
2018-05-10T21:06:10.284Z,12.40
2018-05-10T21:08:38.549Z,12.40
2018-05-10T21:11:06.824Z,12.40
2018-05-10T21:13:35.074Z,12.50
2018-05-10T21:16:02.665Z,12.40
2018-05-10T21:18:30.941Z,12.50
2018-05-10T21:20:59.245Z,12.40
2018-05-10T21:23:26.723Z,12.30
2018-05-10T21:25:54.225Z,12.30
2018-05-10T21:28:22.497Z,12.40
2018-05-10T21:30:50.808Z,12.30
2018-05-10T21:33:18.313Z,12.30
2018-05-10T21:35:45.902Z,12.30
2018-05-10T21:38:14.154Z,12.20
2018-05-10T21:40:41.672Z,12.20
2018-05-10T21:43:09.193Z,12.30
2018-05-10T21:45:36.674Z,12.40
2018-05-10T21:48:04.190Z,12.30
2018-05-10T21:50:32.475Z,12.10
2018-05-10T21:53:00.735Z,12.10
2018-05-10T21:55:29.003Z,12.10
2018-05-10T21:57:56.588Z,12.10
2018-05-10T22:00:24.074Z,12.10
2018-05-10T22:02:51.692Z,12.00
2018-05-10T22:05:19.957Z,12.00
2018-05-10T22:07:48.206Z,11.90
2018-05-10T22:10:15.715Z,11.80
2018-05-10T22:12:43.305Z,11.90
2018-05-10T22:15:10.824Z,11.90
2018-05-10T22:17:38.379Z,11.90
2018-05-10T22:20:05.879Z,11.90
2018-05-10T22:22:33.441Z,11.80
2018-05-10T22:25:00.900Z,12.00
2018-05-10T22:27:28.424Z,12.00
2018-05-10T22:29:55.916Z,12.10
2018-05-10T22:32:23.519Z,12.20
2018-05-10T22:34:51.022Z,12.10
2018-05-10T22:37:18.516Z,12.10
2018-05-10T22:39:46.788Z,12.10
2018-05-10T22:42:15.037Z,12.00
2018-05-10T22:44:42.539Z,11.90
2018-05-10T22:47:10.044Z,11.90
2018-05-10T22:49:37.546Z,11.90
2018-05-10T22:52:05.816Z,11.90
2018-05-10T22:54:34.070Z,11.90
2018-05-10T22:57:01.558Z,11.80
2018-05-10T22:59:29.083Z,11.90
2018-05-10T23:01:56.685Z,11.90
2018-05-10T23:04:24.182Z,11.90
2018-05-10T23:06:51.709Z,11.90
2018-05-10T23:09:19.248Z,11.90
2018-05-10T23:11:46.766Z,11.70
2018-05-10T23:14:14.346Z,11.80
2018-05-10T23:16:42.628Z,11.80
2018-05-10T23:19:10.894Z,11.80
2018-05-10T23:21:39.184Z,11.70
2018-05-10T23:24:06.742Z,11.70
2018-05-10T23:26:34.241Z,11.90
2018-05-10T23:29:01.767Z,11.90
2018-05-10T23:31:29.286Z,11.70
2018-05-10T23:33:56.762Z,11.70
2018-05-10T23:36:25.027Z,11.70
2018-05-10T23:38:53.346Z,11.60
2018-05-10T23:41:20.881Z,11.60
2018-05-10T23:43:48.428Z,11.50
2018-05-10T23:46:15.924Z,11.50
2018-05-10T23:48:43.405Z,11.60
2018-05-10T23:51:10.908Z,11.50
2018-05-10T23:53:38.455Z,11.60
2018-05-10T23:56:06.020Z,11.50
2018-05-10T23:58:33.512Z,11.50
